Racecast

Caleb Weber

Fossil Ridge (CO) · 10 · FRONT RANGECO D5A5A · Compare head to head

Athlete rating 125.9 2026 TF season
Best race 127.1 TF
Races 23
Seasons 3 2024 — 2026

RankedNation #5880·CO #214·CO D5A #138·FRONT RANGE #36·Team #14 ?

Speed rating — all races

Cross Country

XC speed rating

2025 XC 122.3

Fossil Ridge (CO) · Grade 10

Date Meet Event Result Place Rating Difficulty PR/SR Flags
2025-11-22 Toka Sticks Golf Course 5000m 16:42.6 71st · 7th on team 123.2 +0.009 CSR
2025-10-10 Spring Canyon Park 5000m 16:54.8 22nd · 9th on team 123.7 +0.037 ★CR CSR
2025-10-03 Northwest Open Space 5000m 17:22.7 30th · 7th on team 121.2 +0.020 ★CR CSR
2025-09-26 North Lake Park 5000m 17:35 13th · 6th on team 121.2 +0.041 ★CR CSR
2025-09-13 Heritage High School 5000m 16:21.2 95th · 4th on team 124.9 -0.001 ★PR ★CR R SR CSR RSR
2025-08-30 Fort Collins High School 5000m 17:04 40th · 6th on team 122.0 +0.023 ★CR SR CSR RSR
2025-08-23 Spring Canyon Park 5000m 17:19 15th · 7th on team 120.1 +0.037 CR SR CSR RSR

2024 XC 119.2

Fossil Ridge (CO) · Grade 9

Date Meet Event Result Place Rating Difficulty PR/SR Flags
2024-11-23 Toka Sticks Golf Course 5000m 16:36 50th · 5th on team 124.7 +0.009 PR ★CR R SR CSR RSR
2024-10-24 Spring Canyon Park 5000m 17:27 33rd · 6th on team 122.0 +0.037 PR CR R SR CSR RSR
2024-09-21 Lyons Middle/High School 5000m 18:13.5 17th · 2nd on team 117.5 +0.046 ★CR R CSR RSR
2024-09-06 Margaret W. Carpenter Recreation Center 5000m 18:01.3 46th · 5th on team 115.0 +0.014 PR ★CR SR CSR
2024-08-31 Fort Collins High School 5000m 18:08 3rd · 2nd on team 116.6 +0.023 PR CR R SR CSR RSR

Track & Field

TF speed rating

2026 TF 123.4

Fossil Ridge (CO) · Grade 10

Date Meet Event Result Place Rating Difficulty PR/SR Flags
2026-05-08 Hoka St. Vrain Invitational 800m 2:02.14 36th · 2nd on team 125.8 -0.015
2026-04-29 Longs Peak and Northern Conference Championships 3200m 10:13.46 9th · 4th on team 121.6 -0.014 ★PR SR
2026-04-23 Stutler Twilight 1600m 4:37.73 32nd · 5th on team 123.8 -0.014 ★PR SR
2026-04-18 Randall Hess Roughrider Invitational 800m 2:01.03 21st · 3rd on team 127.1 -0.014 ★PR ★R SR RSR
2026-04-10 The Pomona Invitational 1600m 4:46.64 44th · 2nd on team 120.3 -0.011
2026-04-10 Pomona Invite 1600m 4:46.64 44th · 2nd on team 120.3 -0.011
2026-04-08 Randy Yaussi PSD Meet 800m 2:03.73 3rd · 3rd on team 124.7 -0.012
2026-04-04 Altitude Running Invitational 400m 55.13 31st · 2nd on team -0.012 ★PR SR
2026-03-28 Niwot Invitational 800m 2:01.64 16th · 3rd on team 126.5 -0.014 PR R SR RSR
2026-03-21 Runners Roost of Fort Collins Invitational 1600m 4:40.22 7th · 2nd on team 123.0 -0.012 PR SR RSR
2026-03-07 John Martin Early Bird Invite 1600m 4:45.95 7th · 4th on team 120.6 -0.011 PR SR RSR